createdAt,value
2018-06-03T00:00:40.636Z,0.00
2018-06-03T00:01:40.647Z,0.00
2018-06-03T00:02:40.649Z,0.00
2018-06-03T00:03:40.657Z,0.00
2018-06-03T00:04:40.648Z,0.00
2018-06-03T00:05:42.884Z,0.00
2018-06-03T00:06:40.674Z,0.00
2018-06-03T00:07:40.928Z,0.00
2018-06-03T00:08:40.885Z,0.00
2018-06-03T00:09:40.443Z,0.00
2018-06-03T00:10:40.915Z,0.00
2018-06-03T00:11:40.933Z,0.00
2018-06-03T00:12:40.675Z,0.00
2018-06-03T00:13:40.907Z,0.00
2018-06-03T00:14:40.905Z,0.00
2018-06-03T00:15:40.991Z,0.00
2018-06-03T00:16:40.712Z,0.00
2018-06-03T00:17:40.911Z,0.00
2018-06-03T00:18:40.716Z,0.00
2018-06-03T00:19:40.894Z,0.00
2018-06-03T00:20:40.751Z,0.00
2018-06-03T00:21:40.891Z,0.00
2018-06-03T00:22:40.717Z,0.00
2018-06-03T00:23:40.662Z,0.00
2018-06-03T00:24:40.291Z,0.00
2018-06-03T00:25:41.244Z,0.00
2018-06-03T00:26:40.908Z,0.00
2018-06-03T00:27:40.718Z,0.00
2018-06-03T00:28:40.913Z,0.00
2018-06-03T00:29:40.908Z,0.00
2018-06-03T00:30:40.913Z,0.00
2018-06-03T00:31:40.621Z,0.00
2018-06-03T00:32:40.681Z,0.00
2018-06-03T00:33:40.909Z,0.00
2018-06-03T00:34:41.413Z,0.00
2018-06-03T00:35:40.888Z,0.00
2018-06-03T00:36:40.657Z,0.00
2018-06-03T00:37:40.908Z,0.00
2018-06-03T00:38:40.904Z,0.00
2018-06-03T00:39:40.670Z,0.00
2018-06-03T00:40:40.695Z,0.00
2018-06-03T00:41:40.889Z,0.00
2018-06-03T00:42:40.667Z,0.00
2018-06-03T00:43:40.886Z,0.00
2018-06-03T00:44:40.702Z,0.00
2018-06-03T00:45:40.677Z,0.00
2018-06-03T00:46:40.687Z,0.00
2018-06-03T00:47:40.714Z,0.00
2018-06-03T00:48:40.724Z,0.00
2018-06-03T00:49:40.694Z,0.00
2018-06-03T00:50:40.719Z,0.00
2018-06-03T00:51:40.690Z,0.00
2018-06-03T00:52:40.720Z,0.00
2018-06-03T00:53:40.672Z,0.00
2018-06-03T00:54:40.723Z,0.00
2018-06-03T00:55:40.652Z,0.00
2018-06-03T00:56:40.659Z,0.00
2018-06-03T00:57:40.913Z,0.00
2018-06-03T00:58:40.649Z,0.00
2018-06-03T00:59:40.914Z,0.00
2018-06-03T01:00:40.664Z,0.00
2018-06-03T01:01:40.662Z,0.00
2018-06-03T01:02:40.667Z,0.00
2018-06-03T01:03:40.663Z,0.00
2018-06-03T01:04:42.440Z,0.00
2018-06-03T01:05:40.913Z,0.00
2018-06-03T01:06:40.667Z,0.00
2018-06-03T01:07:40.915Z,0.00
2018-06-03T01:08:40.651Z,0.00
2018-06-03T01:09:40.679Z,0.00
2018-06-03T01:10:40.915Z,0.00
2018-06-03T01:11:40.670Z,0.00
2018-06-03T01:12:40.922Z,0.00
2018-06-03T01:13:40.695Z,0.00
2018-06-03T01:14:40.642Z,0.00
2018-06-03T01:15:40.665Z,0.00
2018-06-03T01:16:40.693Z,0.00
2018-06-03T01:17:40.683Z,0.00
2018-06-03T01:18:40.652Z,0.00
2018-06-03T01:19:40.692Z,0.00
2018-06-03T01:20:40.694Z,0.00
2018-06-03T01:21:40.690Z,0.00
2018-06-03T01:22:40.693Z,0.00
2018-06-03T01:23:40.681Z,0.00
2018-06-03T01:24:40.681Z,0.00
2018-06-03T01:25:40.685Z,0.00
2018-06-03T01:26:40.712Z,0.00
2018-06-03T01:27:40.696Z,0.00
2018-06-03T01:28:40.713Z,0.00
2018-06-03T01:29:40.927Z,0.00
2018-06-03T01:30:42.499Z,0.00
2018-06-03T01:31:40.663Z,0.00
2018-06-03T01:32:40.925Z,0.00
2018-06-03T01:33:40.659Z,0.00
2018-06-03T01:34:40.930Z,0.00
2018-06-03T01:35:40.668Z,0.00
2018-06-03T01:36:40.927Z,0.00
2018-06-03T01:37:40.715Z,0.00
2018-06-03T01:38:40.697Z,0.00
2018-06-03T01:39:40.672Z,0.00
2018-06-03T01:40:40.686Z,0.00
2018-06-03T01:41:40.675Z,0.00
2018-06-03T01:42:42.451Z,0.00
2018-06-03T01:43:42.727Z,0.00
2018-06-03T01:44:40.713Z,0.00
2018-06-03T01:45:40.717Z,0.00
2018-06-03T01:46:40.709Z,0.00
2018-06-03T01:47:40.722Z,0.00
2018-06-03T01:48:40.712Z,0.00
2018-06-03T01:49:40.713Z,0.00
2018-06-03T01:50:40.670Z,0.00
2018-06-03T01:51:40.714Z,0.00
2018-06-03T01:52:42.734Z,0.00
2018-06-03T01:53:40.659Z,0.00
2018-06-03T01:54:42.642Z,0.00
2018-06-03T01:55:40.662Z,0.00
2018-06-03T01:56:40.718Z,0.00
2018-06-03T01:57:40.686Z,0.00
2018-06-03T01:58:40.658Z,0.00
2018-06-03T01:59:40.671Z,0.00
2018-06-03T02:00:42.952Z,0.00
2018-06-03T02:01:40.701Z,0.00
2018-06-03T02:02:40.757Z,0.00
2018-06-03T02:03:40.707Z,0.00
2018-06-03T02:04:42.711Z,0.00
2018-06-03T02:05:40.716Z,0.00
2018-06-03T02:06:41.698Z,0.00
2018-06-03T02:07:40.723Z,0.00
2018-06-03T02:08:42.492Z,0.00
2018-06-03T02:09:40.716Z,0.00
2018-06-03T02:10:40.739Z,0.00
2018-06-03T02:11:40.709Z,0.00
2018-06-03T02:12:40.737Z,0.00
2018-06-03T02:13:40.713Z,0.00
2018-06-03T02:14:40.722Z,0.00
2018-06-03T02:15:40.732Z,0.00
2018-06-03T02:16:40.740Z,0.00
2018-06-03T02:17:40.724Z,0.00
2018-06-03T02:18:40.769Z,0.00
2018-06-03T02:19:40.757Z,0.00
2018-06-03T02:20:40.753Z,0.00
2018-06-03T02:21:40.748Z,0.00
2018-06-03T02:22:40.713Z,0.00
2018-06-03T02:23:40.710Z,0.00
2018-06-03T02:24:40.711Z,0.00
2018-06-03T02:25:40.711Z,0.00
2018-06-03T02:26:40.712Z,0.00
2018-06-03T02:27:40.723Z,0.00
2018-06-03T02:28:41.707Z,0.00
2018-06-03T02:29:42.745Z,0.00
2018-06-03T02:30:40.742Z,0.00
2018-06-03T02:31:40.768Z,0.00
2018-06-03T02:32:40.180Z,0.00
2018-06-03T02:33:40.738Z,0.00
2018-06-03T02:34:40.725Z,0.00
2018-06-03T02:35:42.716Z,0.00
2018-06-03T02:36:40.719Z,0.00
2018-06-03T02:37:40.708Z,0.00
2018-06-03T02:38:40.740Z,0.00
2018-06-03T02:39:40.749Z,0.00
2018-06-03T02:40:40.767Z,0.00
2018-06-03T02:41:40.775Z,0.00
2018-06-03T02:42:40.753Z,0.00
2018-06-03T02:43:40.733Z,0.00
2018-06-03T02:44:40.740Z,4.00
2018-06-03T02:45:40.713Z,4.00
2018-06-03T02:46:40.693Z,4.00
2018-06-03T02:47:40.696Z,0.00
2018-06-03T02:48:40.714Z,4.00
2018-06-03T02:49:41.721Z,4.00
2018-06-03T02:50:40.725Z,4.00
2018-06-03T02:51:40.723Z,4.00
2018-06-03T02:52:40.718Z,4.00
2018-06-03T02:53:40.728Z,8.00
2018-06-03T02:54:40.744Z,4.00
2018-06-03T02:55:40.702Z,8.00
2018-06-03T02:56:40.743Z,8.00
2018-06-03T02:57:40.689Z,8.00
2018-06-03T02:58:40.743Z,8.00
2018-06-03T02:59:40.723Z,8.00
2018-06-03T03:00:40.741Z,12.00
2018-06-03T03:01:40.744Z,12.00
2018-06-03T03:02:40.729Z,12.00
2018-06-03T03:03:40.732Z,16.00
2018-06-03T03:04:40.743Z,16.00
2018-06-03T03:05:40.742Z,20.00
2018-06-03T03:06:40.794Z,20.00
2018-06-03T03:07:40.757Z,24.00
2018-06-03T03:08:40.797Z,24.00
2018-06-03T03:09:40.759Z,28.00
2018-06-03T03:10:40.752Z,32.00
2018-06-03T03:11:40.791Z,36.00
2018-06-03T03:12:40.797Z,40.00
2018-06-03T03:13:40.760Z,40.00
2018-06-03T03:14:40.713Z,44.00
2018-06-03T03:15:40.717Z,48.00
2018-06-03T03:16:40.710Z,48.00
2018-06-03T03:17:40.720Z,56.00
2018-06-03T03:18:40.738Z,56.00
2018-06-03T03:19:40.698Z,64.00
2018-06-03T03:20:40.674Z,68.00
2018-06-03T03:21:40.731Z,68.00
2018-06-03T03:22:40.963Z,72.00
2018-06-03T03:23:40.724Z,80.00
2018-06-03T03:24:40.733Z,84.00
2018-06-03T03:25:40.737Z,88.00
2018-06-03T03:26:40.739Z,92.00
2018-06-03T03:27:40.199Z,96.00
2018-06-03T03:28:40.184Z,104.00
2018-06-03T03:29:40.740Z,104.00
2018-06-03T03:30:40.744Z,108.00
2018-06-03T03:31:40.765Z,112.00
2018-06-03T03:32:40.744Z,108.00
2018-06-03T03:33:40.745Z,112.00
2018-06-03T03:34:40.737Z,108.00
2018-06-03T03:35:40.758Z,108.00
2018-06-03T03:36:40.744Z,108.00
2018-06-03T03:37:42.789Z,108.00
2018-06-03T03:38:40.744Z,108.00
2018-06-03T03:39:47.001Z,112.00
2018-06-03T03:40:41.746Z,112.00
2018-06-03T03:41:40.697Z,120.00
2018-06-03T03:42:40.685Z,124.00
2018-06-03T03:43:40.736Z,136.00
2018-06-03T03:44:46.721Z,144.00
2018-06-03T03:45:40.711Z,156.00
2018-06-03T03:46:40.750Z,164.00
2018-06-03T03:47:40.755Z,176.00
2018-06-03T03:48:40.724Z,192.00
2018-06-03T03:50:40.751Z,236.00
2018-06-03T03:51:40.738Z,256.00
2018-06-03T03:52:40.744Z,264.00
2018-06-03T03:53:40.965Z,264.00
2018-06-03T03:54:40.758Z,264.00
2018-06-03T03:55:40.746Z,256.00
2018-06-03T03:56:40.754Z,252.00
2018-06-03T03:57:40.733Z,256.00
2018-06-03T03:58:40.736Z,264.00
2018-06-03T03:59:40.804Z,272.00
2018-06-03T04:00:40.827Z,284.00
2018-06-03T04:01:42.576Z,296.00
2018-06-03T04:02:40.992Z,300.00
2018-06-03T04:03:40.994Z,312.00
2018-06-03T04:04:40.959Z,328.00
2018-06-03T04:06:40.993Z,352.00
2018-06-03T04:07:40.965Z,360.00
2018-06-03T04:08:40.240Z,372.00
2018-06-03T04:09:40.766Z,376.00
2018-06-03T04:10:40.716Z,388.00
2018-06-03T04:11:43.077Z,392.00
2018-06-03T04:12:40.706Z,400.00
2018-06-03T04:13:40.746Z,412.00
2018-06-03T04:14:40.749Z,428.00
2018-06-03T04:15:40.698Z,448.00
2018-06-03T04:16:40.742Z,472.00
2018-06-03T04:17:40.750Z,496.00
2018-06-03T04:18:40.790Z,516.00
2018-06-03T04:19:40.764Z,532.00
2018-06-03T04:20:40.763Z,548.00
2018-06-03T04:21:40.742Z,560.00
2018-06-03T04:22:40.763Z,572.00
2018-06-03T04:23:40.778Z,592.00
2018-06-03T04:24:41.189Z,612.00
2018-06-03T04:25:40.767Z,636.00
2018-06-03T04:26:40.788Z,656.00
2018-06-03T04:27:40.758Z,676.00
2018-06-03T04:28:40.747Z,700.00
2018-06-03T04:29:40.756Z,716.00
2018-06-03T04:30:40.751Z,728.00
2018-06-03T04:31:54.052Z,732.00
2018-06-03T04:32:40.816Z,756.00
2018-06-03T04:33:40.817Z,776.00
2018-06-03T04:34:40.794Z,796.00
2018-06-03T04:35:40.815Z,812.00
2018-06-03T04:36:40.795Z,808.00
2018-06-03T04:37:40.765Z,808.00
2018-06-03T04:38:40.748Z,804.00
2018-06-03T04:39:40.744Z,792.00
2018-06-03T04:40:40.732Z,788.00
2018-06-03T04:41:40.771Z,784.00
2018-06-03T04:42:40.759Z,788.00
2018-06-03T04:43:40.778Z,792.00
2018-06-03T04:44:54.440Z,792.00
2018-06-03T04:45:40.747Z,796.00
2018-06-03T04:46:40.775Z,796.00
2018-06-03T04:47:41.034Z,808.00
2018-06-03T04:48:40.798Z,824.00
2018-06-03T04:49:40.832Z,852.00
2018-06-03T04:50:40.744Z,884.00
2018-06-03T04:51:41.755Z,912.00
2018-06-03T04:52:40.810Z,944.00
2018-06-03T04:53:42.612Z,976.00
2018-06-03T04:54:40.772Z,1004.00
2018-06-03T04:55:40.729Z,1020.00
2018-06-03T04:56:40.739Z,1024.00
2018-06-03T04:57:42.534Z,1024.00
2018-06-03T04:58:42.491Z,1024.00
2018-06-03T04:59:40.808Z,1024.00
2018-06-03T05:00:40.819Z,1024.00
2018-06-03T05:01:40.811Z,1028.00
2018-06-03T05:02:40.823Z,1040.00
2018-06-03T05:03:40.800Z,1076.00
2018-06-03T05:04:41.028Z,1108.00
2018-06-03T05:05:41.068Z,1096.00
2018-06-03T05:06:40.832Z,1040.00
2018-06-03T05:07:40.738Z,972.00
2018-06-03T05:08:40.758Z,912.00
2018-06-03T05:09:46.746Z,872.00
2018-06-03T05:10:40.209Z,844.00
2018-06-03T05:11:40.279Z,844.00
2018-06-03T05:12:42.541Z,860.00
2018-06-03T05:13:40.780Z,916.00
2018-06-03T05:14:40.769Z,960.00
2018-06-03T05:15:40.776Z,980.00
2018-06-03T05:16:40.790Z,976.00
2018-06-03T05:17:40.782Z,968.00
2018-06-03T05:18:40.780Z,976.00
2018-06-03T05:19:41.029Z,1024.00
2018-06-03T05:20:40.340Z,1084.00
2018-06-03T05:21:40.801Z,1144.00
2018-06-03T05:22:42.585Z,1204.00
2018-06-03T05:23:40.806Z,1240.00
2018-06-03T05:24:40.794Z,1280.00
2018-06-03T05:25:40.802Z,1344.00
2018-06-03T05:26:40.795Z,1420.00
2018-06-03T05:27:40.789Z,1476.00
2018-06-03T05:28:40.810Z,1516.00
2018-06-03T05:29:40.802Z,1536.00
2018-06-03T05:30:40.831Z,1540.00
2018-06-03T05:31:40.816Z,1556.00
2018-06-03T05:32:40.733Z,1656.00
2018-06-03T05:34:07.780Z,1704.00
2018-06-03T05:34:40.741Z,1716.00
2018-06-03T05:35:40.752Z,1728.00
2018-06-03T05:36:40.746Z,1728.00
2018-06-03T05:37:40.747Z,1756.00
2018-06-03T05:38:40.736Z,1808.00
2018-06-03T05:39:41.773Z,1860.00
2018-06-03T05:40:41.036Z,1872.00
2018-06-03T05:41:40.801Z,1848.00
2018-06-03T05:42:40.822Z,1804.00
2018-06-03T05:43:40.779Z,1736.00
2018-06-03T05:44:40.809Z,1668.00
2018-06-03T05:45:40.782Z,1636.00
2018-06-03T05:46:40.812Z,1652.00
2018-06-03T05:47:40.812Z,1700.00
2018-06-03T05:48:42.638Z,1760.00
2018-06-03T05:49:40.821Z,1820.00
2018-06-03T05:50:40.826Z,1860.00
2018-06-03T05:51:40.842Z,1896.00
2018-06-03T05:52:40.349Z,1948.00
2018-06-03T05:53:40.822Z,2020.00
2018-06-03T05:54:40.810Z,2124.00
2018-06-03T05:55:40.880Z,2208.00
2018-06-03T05:56:40.824Z,2268.00
2018-06-03T05:57:42.650Z,2308.00
2018-06-03T05:58:40.875Z,2324.00
2018-06-03T05:59:40.415Z,2324.00
2018-06-03T06:00:40.338Z,2356.00
2018-06-03T06:01:40.824Z,2392.00
2018-06-03T06:02:40.801Z,2400.00
2018-06-03T06:03:40.769Z,2340.00
2018-06-03T06:04:40.812Z,2228.00
2018-06-03T06:05:42.817Z,2108.00
2018-06-03T06:06:40.815Z,2044.00
2018-06-03T06:07:40.808Z,2012.00
2018-06-03T06:08:41.001Z,1976.00
2018-06-03T06:09:40.869Z,2020.00
2018-06-03T06:10:40.802Z,2164.00
2018-06-03T06:11:40.902Z,2252.00
2018-06-03T06:12:47.814Z,2312.00
2018-06-03T06:13:40.816Z,2376.00
2018-06-03T06:14:40.883Z,2456.00
2018-06-03T06:15:40.820Z,2556.00
2018-06-03T06:16:40.798Z,2620.00
2018-06-03T06:17:40.921Z,2688.00
2018-06-03T06:18:40.796Z,2752.00
2018-06-03T06:19:40.806Z,2788.00
2018-06-03T06:20:40.828Z,2788.00
2018-06-03T06:21:40.826Z,2808.00
2018-06-03T06:22:40.420Z,2800.00
2018-06-03T06:23:47.075Z,2852.00
2018-06-03T06:24:40.427Z,2888.00
2018-06-03T06:25:40.814Z,2916.00
2018-06-03T06:26:41.010Z,2956.00
2018-06-03T06:27:40.833Z,3036.00
2018-06-03T06:28:40.895Z,3100.00
2018-06-03T06:29:43.028Z,3220.00
2018-06-03T06:30:40.866Z,3372.00
2018-06-03T06:31:40.777Z,3464.00
2018-06-03T06:32:40.791Z,3480.00
2018-06-03T06:33:40.786Z,3512.00
2018-06-03T06:34:40.802Z,3416.00
2018-06-03T06:35:40.809Z,3408.00
2018-06-03T06:36:40.350Z,3428.00
2018-06-03T06:37:40.884Z,3488.00
2018-06-03T06:38:40.830Z,3652.00
2018-06-03T06:39:40.889Z,3916.00
2018-06-03T06:40:41.100Z,4040.00
2018-06-03T06:41:40.835Z,4064.00
2018-06-03T06:42:40.814Z,4008.00
2018-06-03T06:43:41.018Z,3920.00
2018-06-03T06:44:41.598Z,3796.00
2018-06-03T06:45:40.823Z,3728.00
2018-06-03T06:46:40.863Z,3732.00
2018-06-03T06:47:40.814Z,3724.00
2018-06-03T06:48:47.032Z,3720.00
2018-06-03T06:49:40.822Z,3688.00
2018-06-03T06:50:40.919Z,3620.00
2018-06-03T06:51:40.426Z,3528.00
2018-06-03T06:52:42.660Z,3460.00
2018-06-03T06:53:40.862Z,3388.00
2018-06-03T06:54:40.872Z,3356.00
2018-06-03T06:55:40.836Z,3372.00
2018-06-03T06:56:40.850Z,3352.00
2018-06-03T06:57:40.823Z,3284.00
2018-06-03T06:58:40.833Z,3224.00
2018-06-03T06:59:40.855Z,3192.00
2018-06-03T07:00:40.852Z,3176.00
2018-06-03T07:01:40.816Z,3204.00
2018-06-03T07:02:40.821Z,3256.00
2018-06-03T07:03:40.807Z,3408.00
2018-06-03T07:04:40.823Z,3544.00
2018-06-03T07:05:43.845Z,3620.00
2018-06-03T07:06:40.565Z,3580.00
2018-06-03T07:07:41.033Z,3564.00
2018-06-03T07:08:41.068Z,3508.00
2018-06-03T07:09:41.083Z,3508.00
2018-06-03T07:10:40.784Z,3584.00
2018-06-03T07:11:40.841Z,3664.00
2018-06-03T07:12:40.830Z,3724.00
2018-06-03T07:13:41.811Z,3708.00
2018-06-03T07:14:40.851Z,3648.00
2018-06-03T07:15:40.814Z,3600.00
2018-06-03T07:16:40.851Z,3572.00
2018-06-03T07:17:40.872Z,3524.00
2018-06-03T07:18:40.851Z,3500.00
2018-06-03T07:19:40.817Z,3488.00
2018-06-03T07:20:40.886Z,3540.00
2018-06-03T07:21:40.826Z,3688.00
2018-06-03T07:22:40.882Z,3880.00
2018-06-03T07:23:40.881Z,3988.00
2018-06-03T07:24:40.874Z,4020.00
2018-06-03T07:25:40.868Z,4044.00
2018-06-03T07:26:40.849Z,4080.00
2018-06-03T07:27:40.885Z,4128.00
2018-06-03T07:28:40.830Z,4176.00
2018-06-03T07:29:40.819Z,4240.00
2018-06-03T07:30:42.867Z,4264.00
2018-06-03T07:31:40.430Z,4188.00
2018-06-03T07:32:40.835Z,4088.00
2018-06-03T07:33:43.396Z,4028.00
2018-06-03T07:34:40.828Z,4028.00
2018-06-03T07:35:40.856Z,4016.00
2018-06-03T07:36:40.867Z,3936.00
2018-06-03T07:37:40.857Z,3760.00
2018-06-03T07:38:40.887Z,3544.00
2018-06-03T07:39:40.855Z,3348.00
2018-06-03T07:40:40.826Z,3356.00
2018-06-03T07:41:40.850Z,3452.00
2018-06-03T07:42:40.852Z,3448.00
2018-06-03T07:43:49.650Z,3480.00
2018-06-03T07:44:40.907Z,3596.00
2018-06-03T07:45:40.900Z,3772.00
2018-06-03T07:46:41.140Z,3956.00
2018-06-03T07:47:40.998Z,4224.00
2018-06-03T07:48:40.891Z,4364.00
2018-06-03T07:49:40.899Z,4452.00
2018-06-03T07:50:40.900Z,4600.00
2018-06-03T07:51:40.873Z,4740.00
2018-06-03T07:52:40.904Z,4960.00
2018-06-03T07:53:41.900Z,5108.00
2018-06-03T07:54:40.912Z,5060.00
2018-06-03T07:55:40.927Z,4988.00
2018-06-03T07:56:40.899Z,4788.00
2018-06-03T07:57:41.055Z,4620.00
2018-06-03T07:58:40.874Z,4516.00
2018-06-03T07:59:40.847Z,4412.00
2018-06-03T08:00:41.098Z,4340.00
2018-06-03T08:01:40.903Z,4208.00
2018-06-03T08:02:40.918Z,4012.00
2018-06-03T08:03:41.413Z,3920.00
2018-06-03T08:04:40.842Z,3852.00
2018-06-03T08:05:41.405Z,3756.00
2018-06-03T08:06:40.554Z,3624.00
2018-06-03T08:07:41.128Z,3500.00
2018-06-03T08:08:42.353Z,3500.00
2018-06-03T08:09:41.111Z,3612.00
2018-06-03T08:10:41.000Z,3592.00
2018-06-03T08:11:40.912Z,3436.00
2018-06-03T08:12:40.983Z,3284.00
2018-06-03T08:13:41.009Z,3212.00
2018-06-03T08:14:41.029Z,3100.00
2018-06-03T08:15:41.036Z,3036.00
2018-06-03T08:16:41.039Z,2972.00
2018-06-03T08:17:40.998Z,2880.00
2018-06-03T08:18:41.020Z,2752.00
2018-06-03T08:19:41.026Z,2632.00
2018-06-03T08:20:40.991Z,2544.00
2018-06-03T08:21:40.899Z,2432.00
2018-06-03T08:22:40.850Z,2304.00
2018-06-03T08:23:41.872Z,2180.00
2018-06-03T08:24:40.902Z,2120.00
2018-06-03T08:25:40.942Z,2104.00
2018-06-03T08:26:40.606Z,2096.00
2018-06-03T08:27:40.847Z,2020.00
2018-06-03T08:28:43.601Z,1848.00
2018-06-03T08:29:41.109Z,1640.00
2018-06-03T08:30:40.614Z,1436.00
2018-06-03T08:31:41.423Z,1264.00
2018-06-03T08:32:41.592Z,1176.00
2018-06-03T08:33:40.871Z,1116.00
2018-06-03T08:34:43.106Z,1104.00
2018-06-03T08:35:40.948Z,1184.00
2018-06-03T08:36:40.906Z,1288.00
2018-06-03T08:37:41.063Z,1332.00
2018-06-03T08:38:40.528Z,1356.00
2018-06-03T08:39:40.894Z,1412.00
2018-06-03T08:40:40.930Z,1492.00
2018-06-03T08:41:41.071Z,1568.00
2018-06-03T08:42:41.012Z,1668.00
2018-06-03T08:43:41.037Z,1804.00
2018-06-03T08:44:43.487Z,1980.00
2018-06-03T08:45:42.890Z,2200.00
2018-06-03T08:46:43.151Z,2456.00
2018-06-03T08:47:41.118Z,2692.00
2018-06-03T08:48:41.035Z,2896.00
2018-06-03T08:49:41.449Z,3136.00
2018-06-03T08:50:41.074Z,3352.00
2018-06-03T08:51:41.120Z,3508.00
2018-06-03T08:52:41.613Z,3588.00
2018-06-03T08:53:41.033Z,3608.00
2018-06-03T08:54:41.045Z,3572.00
2018-06-03T08:55:41.074Z,3548.00
2018-06-03T08:56:41.114Z,3532.00
2018-06-03T08:57:41.068Z,3612.00
2018-06-03T08:58:40.939Z,3708.00
2018-06-03T08:59:40.998Z,3788.00
2018-06-03T09:00:40.898Z,3828.00
2018-06-03T09:01:40.964Z,3940.00
2018-06-03T09:02:40.929Z,4088.00
2018-06-03T09:03:40.955Z,4168.00
2018-06-03T09:04:41.084Z,3976.00
2018-06-03T09:05:41.405Z,3508.00
2018-06-03T09:06:41.059Z,3080.00
2018-06-03T09:07:41.292Z,2644.00
2018-06-03T09:08:41.093Z,2264.00
2018-06-03T09:09:41.425Z,1948.00
2018-06-03T09:10:43.075Z,1740.00
2018-06-03T09:11:41.582Z,1556.00
2018-06-03T09:12:41.601Z,1384.00
2018-06-03T09:13:41.389Z,1224.00
2018-06-03T09:14:41.678Z,1080.00
2018-06-03T09:15:40.720Z,1024.00
2018-06-03T09:16:41.395Z,1032.00
2018-06-03T09:17:43.580Z,1064.00
2018-06-03T09:18:41.699Z,1108.00
2018-06-03T09:19:41.388Z,1204.00
2018-06-03T09:20:41.667Z,1308.00
2018-06-03T09:21:41.332Z,1472.00
2018-06-03T09:22:41.330Z,1684.00
2018-06-03T09:23:41.301Z,1920.00
2018-06-03T09:24:41.375Z,2180.00
2018-06-03T09:25:41.367Z,2452.00
2018-06-03T09:26:41.373Z,2724.00
2018-06-03T09:27:41.373Z,3052.00
2018-06-03T09:28:41.372Z,3432.00
2018-06-03T09:29:41.389Z,3812.00
2018-06-03T09:30:41.338Z,4268.00
2018-06-03T09:31:41.355Z,4772.00
2018-06-03T09:32:41.360Z,5284.00
2018-06-03T09:33:41.382Z,5812.00
2018-06-03T09:34:41.671Z,6280.00
2018-06-03T09:35:41.128Z,6604.00
2018-06-03T09:36:41.593Z,6764.00
2018-06-03T09:37:41.416Z,6872.00
2018-06-03T09:38:41.415Z,6976.00
2018-06-03T09:39:41.433Z,7172.00
2018-06-03T09:40:41.723Z,7332.00
2018-06-03T09:41:41.460Z,7348.00
2018-06-03T09:42:41.376Z,7440.00
2018-06-03T09:43:41.133Z,7600.00
2018-06-03T09:44:41.470Z,7900.00
2018-06-03T09:45:41.381Z,8344.00
2018-06-03T09:46:45.085Z,8700.00
2018-06-03T09:47:41.439Z,8956.00
2018-06-03T09:48:41.356Z,9020.00
2018-06-03T09:49:41.384Z,8976.00
2018-06-03T09:50:41.379Z,8948.00
2018-06-03T09:51:41.364Z,8764.00
2018-06-03T09:52:50.308Z,8588.00
2018-06-03T09:53:41.341Z,8496.00
2018-06-03T09:54:41.340Z,8624.00
2018-06-03T09:55:41.638Z,8792.00
2018-06-03T09:56:41.492Z,8136.00
2018-06-03T09:57:41.697Z,7336.00
2018-06-03T09:58:41.877Z,6504.00
2018-06-03T10:01:45.789Z,7764.00
2018-06-03T10:03:13.031Z,7912.00
2018-06-03T10:07:58.157Z,8360.00
2018-06-03T10:09:58.581Z,9084.00
2018-06-03T10:10:54.854Z,9648.00
2018-06-03T10:12:45.734Z,9368.00
2018-06-03T10:13:45.507Z,8560.00
2018-06-03T10:15:40.677Z,6328.00
2018-06-03T10:16:40.684Z,5172.00
2018-06-03T10:18:34.294Z,4140.00
2018-06-03T10:19:34.853Z,3744.00
2018-06-03T10:21:28.488Z,3616.00
2018-06-03T10:22:28.718Z,3916.00
2018-06-03T10:24:22.900Z,5132.00
2018-06-03T10:25:22.901Z,5752.00
2018-06-03T10:27:17.084Z,6680.00
2018-06-03T10:29:31.409Z,7452.00
2018-06-03T10:30:31.875Z,7936.00
2018-06-03T10:31:31.808Z,8236.00
2018-06-03T10:32:31.884Z,8676.00
2018-06-03T10:33:32.060Z,9208.00
2018-06-03T10:34:31.627Z,9344.00
2018-06-03T10:35:33.796Z,9424.00
2018-06-03T10:36:31.570Z,9312.00
2018-06-03T10:38:26.037Z,9380.00
2018-06-03T10:41:20.277Z,8900.00
2018-06-03T10:42:20.544Z,8824.00
2018-06-03T10:44:14.612Z,9408.00
2018-06-03T10:45:14.716Z,9804.00
2018-06-03T10:47:08.523Z,10112.00
2018-06-03T10:48:08.866Z,10136.00
2018-06-03T10:50:03.792Z,9848.00
2018-06-03T10:51:03.552Z,8648.00
2018-06-03T10:52:03.615Z,8748.00
2018-06-03T10:53:09.845Z,9300.00
2018-06-03T10:54:03.288Z,9444.00
2018-06-03T10:55:03.869Z,9232.00
2018-06-03T10:56:03.582Z,8464.00
2018-06-03T10:57:03.567Z,7528.00
2018-06-03T10:58:03.652Z,8136.00
2018-06-03T10:59:03.775Z,8632.00
2018-06-03T11:00:03.697Z,8620.00
2018-06-03T11:01:03.663Z,9084.00
2018-06-03T11:02:03.826Z,8916.00
2018-06-03T11:03:03.850Z,8608.00
2018-06-03T11:04:03.620Z,8212.00
2018-06-03T11:05:03.205Z,8024.00
2018-06-03T11:07:03.259Z,7768.00
2018-06-03T11:08:03.757Z,7800.00
2018-06-03T11:09:03.606Z,7900.00
2018-06-03T11:10:03.262Z,8116.00
2018-06-03T11:11:05.780Z,8172.00
2018-06-03T11:12:07.625Z,8244.00
2018-06-03T11:13:07.382Z,8304.00
2018-06-03T11:14:03.657Z,8324.00
2018-06-03T11:15:04.246Z,8196.00
2018-06-03T11:16:03.758Z,8188.00
2018-06-03T11:17:04.101Z,8396.00
2018-06-03T11:18:03.674Z,8620.00
2018-06-03T11:19:03.674Z,8764.00
2018-06-03T11:20:03.640Z,8864.00
2018-06-03T11:21:12.505Z,8852.00
2018-06-03T11:22:03.650Z,8812.00
2018-06-03T11:23:10.005Z,8832.00
2018-06-03T11:26:01.505Z,8952.00
2018-06-03T11:28:14.118Z,8916.00
2018-06-03T11:28:52.540Z,9060.00
2018-06-03T11:30:48.455Z,9504.00
2018-06-03T11:31:46.033Z,9600.00
2018-06-03T11:33:48.373Z,9720.00
2018-06-03T11:36:36.381Z,10120.00
2018-06-03T11:37:19.947Z,10696.00
2018-06-03T11:38:12.583Z,11212.00
2018-06-03T11:39:20.684Z,11404.00
2018-06-03T11:39:57.643Z,11376.00
2018-06-03T11:40:57.403Z,10892.00
2018-06-03T11:41:57.555Z,11280.00
2018-06-03T11:42:59.206Z,11592.00
2018-06-03T11:43:57.129Z,11892.00
2018-06-03T11:44:56.988Z,12176.00
2018-06-03T11:45:57.379Z,12424.00
2018-06-03T11:46:57.422Z,12636.00
2018-06-03T11:47:57.452Z,12412.00
2018-06-03T11:48:57.091Z,12712.00
2018-06-03T11:49:57.074Z,12480.00
2018-06-03T11:50:57.107Z,11928.00
2018-06-03T11:51:57.040Z,12632.00
2018-06-03T11:52:57.615Z,13656.00
2018-06-03T11:53:56.725Z,13596.00
2018-06-03T11:54:57.052Z,13408.00
2018-06-03T11:55:57.412Z,12628.00
2018-06-03T11:56:57.422Z,13984.00
2018-06-03T11:57:57.324Z,13988.00
2018-06-03T11:58:57.068Z,13844.00
2018-06-03T11:59:57.381Z,14356.00
2018-06-03T12:00:57.655Z,14180.00
2018-06-03T12:01:58.302Z,14200.00
2018-06-03T12:02:57.922Z,14612.00
2018-06-03T12:03:57.575Z,14672.00
2018-06-03T12:04:58.086Z,14924.00
2018-06-03T12:05:57.415Z,15200.00
2018-06-03T12:06:57.475Z,15224.00
2018-06-03T12:07:57.400Z,15796.00
2018-06-03T12:08:57.376Z,15824.00
2018-06-03T12:09:57.576Z,16108.00
2018-06-03T12:10:57.571Z,15728.00
2018-06-03T12:11:57.571Z,14852.00
2018-06-03T12:12:57.538Z,12964.00
2018-06-03T12:13:57.487Z,12988.00
2018-06-03T12:14:57.924Z,14628.00
2018-06-03T12:15:57.212Z,15024.00
2018-06-03T12:18:29.963Z,14136.00
2018-06-03T12:19:30.562Z,13840.00
2018-06-03T12:27:02.868Z,17012.00
2018-06-03T12:30:10.432Z,59136.00
2018-06-03T12:32:25.931Z,61792.00
2018-06-03T12:34:38.883Z,61504.00
2018-06-03T12:35:39.165Z,60160.00
2018-06-03T12:37:33.941Z,14504.00
2018-06-03T12:38:33.916Z,56320.00
2018-06-03T12:40:35.121Z,62528.00
2018-06-03T12:41:29.202Z,60768.00
2018-06-03T12:43:21.388Z,56768.00
2018-06-03T12:46:20.970Z,58592.00
2018-06-03T12:47:17.108Z,59808.00
2018-06-03T12:49:11.910Z,15568.00
2018-06-03T12:50:11.152Z,14532.00
2018-06-03T12:51:12.597Z,12264.00
2018-06-03T12:52:12.259Z,12720.00
2018-06-03T12:53:18.896Z,13428.00
2018-06-03T12:54:10.916Z,26368.00
2018-06-03T12:55:11.326Z,66048.00
2018-06-03T12:56:19.614Z,81664.00
2018-06-03T12:57:11.705Z,110272.00
2018-06-03T12:58:11.665Z,112768.00
2018-06-03T12:59:11.953Z,107200.00
2018-06-03T13:00:39.363Z,103456.00
2018-06-03T13:01:19.374Z,98592.00
2018-06-03T13:02:11.897Z,96480.00
2018-06-03T13:03:11.525Z,99264.00
2018-06-03T13:05:06.754Z,95232.00
2018-06-03T13:07:20.078Z,94816.00
2018-06-03T13:08:20.420Z,98080.00
2018-06-03T13:10:15.162Z,100032.00
2018-06-03T13:11:15.259Z,96672.00
2018-06-03T13:13:09.719Z,14336.00
2018-06-03T13:14:11.677Z,13620.00
2018-06-03T13:15:10.261Z,15048.00